sensor_id;sensor_type;location;lat;lon;timestamp;P1;P2;P0
77777;PMS5003;66966;-34.746;138.604;2023-07-28T00:00:19;2;2;
77777;PMS5003;66966;-34.746;138.604;2023-07-28T00:02:45;3;3;
77777;PMS5003;66966;-34.746;138.604;2023-07-28T00:05:10;2;2;
77777;PMS5003;66966;-34.746;138.604;2023-07-28T00:07:36;2;1;
77777;PMS5003;66966;-34.746;138.604;2023-07-28T00:10:02;5;2;
77777;PMS5003;66966;-34.746;138.604;2023-07-28T00:12:27;3;2;
77777;PMS5003;66966;-34.746;138.604;2023-07-28T00:14:53;1;1;
77777;PMS5003;66966;-34.746;138.604;2023-07-28T00:17:19;3;2;
77777;PMS5003;66966;-34.746;138.604;2023-07-28T00:19:45;2;1;
77777;PMS5003;66966;-34.746;138.604;2023-07-28T00:22:10;1;1;
77777;PMS5003;66966;-34.746;138.604;2023-07-28T00:24:36;3;2;
77777;PMS5003;66966;-34.746;138.604;2023-07-28T00:27:02;4;2;
77777;PMS5003;66966;-34.746;138.604;2023-07-28T00:29:27;2;2;
77777;PMS5003;66966;-34.746;138.604;2023-07-28T00:31:53;3;3;
77777;PMS5003;66966;-34.746;138.604;2023-07-28T00:34:20;2;1;
77777;PMS5003;66966;-34.746;138.604;2023-07-28T00:36:44;2;1;
77777;PMS5003;66966;-34.746;138.604;2023-07-28T00:39:11;3;1;
77777;PMS5003;66966;-34.746;138.604;2023-07-28T00:41:36;3;3;
77777;PMS5003;66966;-34.746;138.604;2023-07-28T00:44:02;3;2;
77777;PMS5003;66966;-34.746;138.604;2023-07-28T00:46:27;2;2;
77777;PMS5003;66966;-34.746;138.604;2023-07-28T00:48:53;2;2;
77777;PMS5003;66966;-34.746;138.604;2023-07-28T00:51:19;3;2;
77777;PMS5003;66966;-34.746;138.604;2023-07-28T00:53:44;2;1;
77777;PMS5003;66966;-34.746;138.604;2023-07-28T00:56:10;4;3;
77777;PMS5003;66966;-34.746;138.604;2023-07-28T00:58:35;2;2;
77777;PMS5003;66966;-34.746;138.604;2023-07-28T01:01:01;3;3;
77777;PMS5003;66966;-34.746;138.604;2023-07-28T01:03:27;4;3;
77777;PMS5003;66966;-34.746;138.604;2023-07-28T01:05:55;2;2;
77777;PMS5003;66966;-34.746;138.604;2023-07-28T01:08:21;2;2;
77777;PMS5003;66966;-34.746;138.604;2023-07-28T01:10:44;2;2;
77777;PMS5003;66966;-34.746;138.604;2023-07-28T01:13:09;3;0;
77777;PMS5003;66966;-34.746;138.604;2023-07-28T01:15:35;1;1;
77777;PMS5003;66966;-34.746;138.604;2023-07-28T01:18:01;1;1;
77777;PMS5003;66966;-34.746;138.604;2023-07-28T01:20:28;6;2;
77777;PMS5003;66966;-34.746;138.604;2023-07-28T01:22:56;3;2;
77777;PMS5003;66966;-34.746;138.604;2023-07-28T01:25:20;2;1;
77777;PMS5003;66966;-34.746;138.604;2023-07-28T01:27:44;2;1;
77777;PMS5003;66966;-34.746;138.604;2023-07-28T01:30:09;2;2;
77777;PMS5003;66966;-34.746;138.604;2023-07-28T01:32:35;1;1;
77777;PMS5003;66966;-34.746;138.604;2023-07-28T01:35:00;1;1;
77777;PMS5003;66966;-34.746;138.604;2023-07-28T01:37:26;1;0;
77777;PMS5003;66966;-34.746;138.604;2023-07-28T01:39:52;0;0;
77777;PMS5003;66966;-34.746;138.604;2023-07-28T01:42:17;1;1;
77777;PMS5003;66966;-34.746;138.604;2023-07-28T01:44:43;2;2;
77777;PMS5003;66966;-34.746;138.604;2023-07-28T02:30:48;0;0;
77777;PMS5003;66966;-34.746;138.604;2023-07-28T02:33:13;2;2;
77777;PMS5003;66966;-34.746;138.604;2023-07-28T02:35:38;0;0;
77777;PMS5003;66966;-34.746;138.604;2023-07-28T02:38:06;3;1;
77777;PMS5003;66966;-34.746;138.604;2023-07-28T02:40:40;2;2;
77777;PMS5003;66966;-34.746;138.604;2023-07-28T02:42:56;1;1;
77777;PMS5003;66966;-34.746;138.604;2023-07-28T02:45:20;2;1;
77777;PMS5003;66966;-34.746;138.604;2023-07-28T02:47:45;2;2;
77777;PMS5003;66966;-34.746;138.604;2023-07-28T02:50:11;4;3;
77777;PMS5003;66966;-34.746;138.604;2023-07-28T02:52:36;2;2;
77777;PMS5003;66966;-34.746;138.604;2023-07-28T02:55:02;1;1;
77777;PMS5003;66966;-34.746;138.604;2023-07-28T02:57:27;0;0;
77777;PMS5003;66966;-34.746;138.604;2023-07-28T02:59:53;2;2;
77777;PMS5003;66966;-34.746;138.604;2023-07-28T03:02:18;1;0;
77777;PMS5003;66966;-34.746;138.604;2023-07-28T03:04:44;4;2;
77777;PMS5003;66966;-34.746;138.604;2023-07-28T03:07:09;3;2;
77777;PMS5003;66966;-34.746;138.604;2023-07-28T03:09:35;2;1;
77777;PMS5003;66966;-34.746;138.604;2023-07-28T03:12:01;1;0;
77777;PMS5003;66966;-34.746;138.604;2023-07-28T03:14:26;1;1;
77777;PMS5003;66966;-34.746;138.604;2023-07-28T03:16:51;3;1;
77777;PMS5003;66966;-34.746;138.604;2023-07-28T03:19:17;1;1;
77777;PMS5003;66966;-34.746;138.604;2023-07-28T03:21:43;3;2;
77777;PMS5003;66966;-34.746;138.604;2023-07-28T03:24:08;6;5;
77777;PMS5003;66966;-34.746;138.604;2023-07-28T03:26:33;4;3;
77777;PMS5003;66966;-34.746;138.604;2023-07-28T03:28:59;2;2;
77777;PMS5003;66966;-34.746;138.604;2023-07-28T03:31:25;1;0;
77777;PMS5003;66966;-34.746;138.604;2023-07-28T03:33:50;1;1;
77777;PMS5003;66966;-34.746;138.604;2023-07-28T03:36:16;2;0;
77777;PMS5003;66966;-34.746;138.604;2023-07-28T03:38:41;1;1;
77777;PMS5003;66966;-34.746;138.604;2023-07-28T03:41:07;2;1;
77777;PMS5003;66966;-34.746;138.604;2023-07-28T03:43:33;1;0;
77777;PMS5003;66966;-34.746;138.604;2023-07-28T03:45:58;1;0;
77777;PMS5003;66966;-34.746;138.604;2023-07-28T03:48:23;0;0;
77777;PMS5003;66966;-34.746;138.604;2023-07-28T03:50:49;2;1;
77777;PMS5003;66966;-34.746;138.604;2023-07-28T03:53:14;1;0;
77777;PMS5003;66966;-34.746;138.604;2023-07-28T03:55:40;3;1;
77777;PMS5003;66966;-34.746;138.604;2023-07-28T03:58:05;1;1;
77777;PMS5003;66966;-34.746;138.604;2023-07-28T04:00:31;0;0;
77777;PMS5003;66966;-34.746;138.604;2023-07-28T04:02:56;0;0;
77777;PMS5003;66966;-34.746;138.604;2023-07-28T04:05:22;2;0;
77777;PMS5003;66966;-34.746;138.604;2023-07-28T04:07:48;4;0;
77777;PMS5003;66966;-34.746;138.604;2023-07-28T04:10:13;0;0;
77777;PMS5003;66966;-34.746;138.604;2023-07-28T04:12:38;1;1;
77777;PMS5003;66966;-34.746;138.604;2023-07-28T04:15:04;1;0;
77777;PMS5003;66966;-34.746;138.604;2023-07-28T04:17:29;1;1;
77777;PMS5003;66966;-34.746;138.604;2023-07-28T04:19:55;1;1;
77777;PMS5003;66966;-34.746;138.604;2023-07-28T04:22:20;0;0;
77777;PMS5003;66966;-34.746;138.604;2023-07-28T04:24:46;1;1;
77777;PMS5003;66966;-34.746;138.604;2023-07-28T04:27:12;0;0;
77777;PMS5003;66966;-34.746;138.604;2023-07-28T04:29:37;2;1;
77777;PMS5003;66966;-34.746;138.604;2023-07-28T04:32:03;1;0;
77777;PMS5003;66966;-34.746;138.604;2023-07-28T04:34:28;4;2;
77777;PMS5003;66966;-34.746;138.604;2023-07-28T04:36:54;1;1;
77777;PMS5003;66966;-34.746;138.604;2023-07-28T04:39:19;1;1;
77777;PMS5003;66966;-34.746;138.604;2023-07-28T04:41:44;2;2;
77777;PMS5003;66966;-34.746;138.604;2023-07-28T04:44:10;3;3;
77777;PMS5003;66966;-34.746;138.604;2023-07-28T04:46:36;2;2;
77777;PMS5003;66966;-34.746;138.604;2023-07-28T04:49:01;1;1;
77777;PMS5003;66966;-34.746;138.604;2023-07-28T04:51:27;2;2;
77777;PMS5003;66966;-34.746;138.604;2023-07-28T04:53:52;1;1;
77777;PMS5003;66966;-34.746;138.604;2023-07-28T04:56:18;1;1;
77777;PMS5003;66966;-34.746;138.604;2023-07-28T04:58:43;0;0;
77777;PMS5003;66966;-34.746;138.604;2023-07-28T05:01:08;3;2;
77777;PMS5003;66966;-34.746;138.604;2023-07-28T05:03:34;0;0;
77777;PMS5003;66966;-34.746;138.604;2023-07-28T05:06:00;2;1;
77777;PMS5003;66966;-34.746;138.604;2023-07-28T05:08:25;1;0;
77777;PMS5003;66966;-34.746;138.604;2023-07-28T05:10:51;0;0;
77777;PMS5003;66966;-34.746;138.604;2023-07-28T05:13:16;1;0;
77777;PMS5003;66966;-34.746;138.604;2023-07-28T05:15:42;0;0;
77777;PMS5003;66966;-34.746;138.604;2023-07-28T05:18:08;0;0;
77777;PMS5003;66966;-34.746;138.604;2023-07-28T05:20:33;0;0;
77777;PMS5003;66966;-34.746;138.604;2023-07-28T05:22:58;0;0;
77777;PMS5003;66966;-34.746;138.604;2023-07-28T05:25:24;1;1;
77777;PMS5003;66966;-34.746;138.604;2023-07-28T05:27:50;0;0;
77777;PMS5003;66966;-34.746;138.604;2023-07-28T05:30:15;1;1;
77777;PMS5003;66966;-34.746;138.604;2023-07-28T05:32:41;2;1;
77777;PMS5003;66966;-34.746;138.604;2023-07-28T05:35:07;0;0;
77777;PMS5003;66966;-34.746;138.604;2023-07-28T05:37:32;1;1;
77777;PMS5003;66966;-34.746;138.604;2023-07-28T05:39:57;1;0;
77777;PMS5003;66966;-34.746;138.604;2023-07-28T05:42:23;0;0;
77777;PMS5003;66966;-34.746;138.604;2023-07-28T05:44:49;0;0;
77777;PMS5003;66966;-34.746;138.604;2023-07-28T05:47:14;0;0;
77777;PMS5003;66966;-34.746;138.604;2023-07-28T05:49:40;0;0;
77777;PMS5003;66966;-34.746;138.604;2023-07-28T05:52:05;1;1;
77777;PMS5003;66966;-34.746;138.604;2023-07-28T05:54:31;1;0;
77777;PMS5003;66966;-34.746;138.604;2023-07-28T05:56:57;0;0;
77777;PMS5003;66966;-34.746;138.604;2023-07-28T05:59:22;0;0;
77777;PMS5003;66966;-34.746;138.604;2023-07-28T06:01:48;0;0;
77777;PMS5003;66966;-34.746;138.604;2023-07-28T06:04:13;0;0;
77777;PMS5003;66966;-34.746;138.604;2023-07-28T06:06:39;2;2;
77777;PMS5003;66966;-34.746;138.604;2023-07-28T06:09:05;1;1;
77777;PMS5003;66966;-34.746;138.604;2023-07-28T06:11:30;1;1;
77777;PMS5003;66966;-34.746;138.604;2023-07-28T06:13:55;0;0;
77777;PMS5003;66966;-34.746;138.604;2023-07-28T06:16:21;0;0;
77777;PMS5003;66966;-34.746;138.604;2023-07-28T06:18:46;1;0;
77777;PMS5003;66966;-34.746;138.604;2023-07-28T06:21:12;0;0;
77777;PMS5003;66966;-34.746;138.604;2023-07-28T06:23:37;2;0;
77777;PMS5003;66966;-34.746;138.604;2023-07-28T06:26:03;0;0;
77777;PMS5003;66966;-34.746;138.604;2023-07-28T06:28:28;0;0;
77777;PMS5003;66966;-34.746;138.604;2023-07-28T06:30:54;2;0;
77777;PMS5003;66966;-34.746;138.604;2023-07-28T06:33:20;1;1;
77777;PMS5003;66966;-34.746;138.604;2023-07-28T06:35:45;0;0;
77777;PMS5003;66966;-34.746;138.604;2023-07-28T06:38:11;2;1;
77777;PMS5003;66966;-34.746;138.604;2023-07-28T06:40:36;0;0;
77777;PMS5003;66966;-34.746;138.604;2023-07-28T06:43:02;2;2;
77777;PMS5003;66966;-34.746;138.604;2023-07-28T06:45:28;1;1;
77777;PMS5003;66966;-34.746;138.604;2023-07-28T06:47:53;1;1;
77777;PMS5003;66966;-34.746;138.604;2023-07-28T06:50:19;2;1;
77777;PMS5003;66966;-34.746;138.604;2023-07-28T06:52:44;0;0;
77777;PMS5003;66966;-34.746;138.604;2023-07-28T06:55:10;0;0;
77777;PMS5003;66966;-34.746;138.604;2023-07-28T06:57:36;0;0;
77777;PMS5003;66966;-34.746;138.604;2023-07-28T07:00:01;0;0;
77777;PMS5003;66966;-34.746;138.604;2023-07-28T07:02:26;2;2;
77777;PMS5003;66966;-34.746;138.604;2023-07-28T07:04:52;2;0;
77777;PMS5003;66966;-34.746;138.604;2023-07-28T07:07:17;4;1;
77777;PMS5003;66966;-34.746;138.604;2023-07-28T07:09:44;0;0;
77777;PMS5003;66966;-34.746;138.604;2023-07-28T07:12:09;0;0;
77777;PMS5003;66966;-34.746;138.604;2023-07-28T07:14:34;0;0;
77777;PMS5003;66966;-34.746;138.604;2023-07-28T07:17:00;0;0;
77777;PMS5003;66966;-34.746;138.604;2023-07-28T07:19:26;2;1;
77777;PMS5003;66966;-34.746;138.604;2023-07-28T07:21:51;2;1;
77777;PMS5003;66966;-34.746;138.604;2023-07-28T07:24:16;1;1;
77777;PMS5003;66966;-34.746;138.604;2023-07-28T07:26:42;0;0;
77777;PMS5003;66966;-34.746;138.604;2023-07-28T07:29:07;0;0;
77777;PMS5003;66966;-34.746;138.604;2023-07-28T07:31:33;0;0;
77777;PMS5003;66966;-34.746;138.604;2023-07-28T07:33:59;1;1;
77777;PMS5003;66966;-34.746;138.604;2023-07-28T07:36:24;1;0;
77777;PMS5003;66966;-34.746;138.604;2023-07-28T07:38:50;1;0;
77777;PMS5003;66966;-34.746;138.604;2023-07-28T07:41:15;0;0;
77777;PMS5003;66966;-34.746;138.604;2023-07-28T07:43:41;0;0;
77777;PMS5003;66966;-34.746;138.604;2023-07-28T07:46:07;2;1;
77777;PMS5003;66966;-34.746;138.604;2023-07-28T07:48:32;0;0;
77777;PMS5003;66966;-34.746;138.604;2023-07-28T07:50:57;0;0;
77777;PMS5003;66966;-34.746;138.604;2023-07-28T07:53:23;0;0;
77777;PMS5003;66966;-34.746;138.604;2023-07-28T07:55:49;2;1;
77777;PMS5003;66966;-34.746;138.604;2023-07-28T07:58:15;1;1;
77777;PMS5003;66966;-34.746;138.604;2023-07-28T08:00:40;1;1;
77777;PMS5003;66966;-34.746;138.604;2023-07-28T08:03:05;1;1;
77777;PMS5003;66966;-34.746;138.604;2023-07-28T08:05:31;2;1;
77777;PMS5003;66966;-34.746;138.604;2023-07-28T08:07:57;2;1;
77777;PMS5003;66966;-34.746;138.604;2023-07-28T08:10:22;1;1;
77777;PMS5003;66966;-34.746;138.604;2023-07-28T08:12:48;3;3;
77777;PMS5003;66966;-34.746;138.604;2023-07-28T08:15:13;3;3;
77777;PMS5003;66966;-34.746;138.604;2023-07-28T08:17:39;2;2;
77777;PMS5003;66966;-34.746;138.604;2023-07-28T08:20:05;1;1;
77777;PMS5003;66966;-34.746;138.604;2023-07-28T08:22:30;1;1;
77777;PMS5003;66966;-34.746;138.604;2023-07-28T08:24:55;2;1;
77777;PMS5003;66966;-34.746;138.604;2023-07-28T08:27:21;2;2;
77777;PMS5003;66966;-34.746;138.604;2023-07-28T08:29:46;0;0;
77777;PMS5003;66966;-34.746;138.604;2023-07-28T08:32:12;3;2;
77777;PMS5003;66966;-34.746;138.604;2023-07-28T08:34:38;1;1;
77777;PMS5003;66966;-34.746;138.604;2023-07-28T08:37:03;2;1;
77777;PMS5003;66966;-34.746;138.604;2023-07-28T08:39:28;0;0;
77777;PMS5003;66966;-34.746;138.604;2023-07-28T08:41:58;1;1;
77777;PMS5003;66966;-34.746;138.604;2023-07-28T08:44:20;4;3;
77777;PMS5003;66966;-34.746;138.604;2023-07-28T08:46:45;4;4;
77777;PMS5003;66966;-34.746;138.604;2023-07-28T08:49:11;3;3;
77777;PMS5003;66966;-34.746;138.604;2023-07-28T08:51:40;8;5;
77777;PMS5003;66966;-34.746;138.604;2023-07-28T08:54:02;6;6;
77777;PMS5003;66966;-34.746;138.604;2023-07-28T08:56:28;6;5;
77777;PMS5003;66966;-34.746;138.604;2023-07-28T08:58:57;7;5;
77777;PMS5003;66966;-34.746;138.604;2023-07-28T09:01:22;11;11;
77777;PMS5003;66966;-34.746;138.604;2023-07-28T09:03:44;8;7;
77777;PMS5003;66966;-34.746;138.604;2023-07-28T09:06:10;9;7;
77777;PMS5003;66966;-34.746;138.604;2023-07-28T09:08:36;7;7;
77777;PMS5003;66966;-34.746;138.604;2023-07-28T09:11:02;12;9;
77777;PMS5003;66966;-34.746;138.604;2023-07-28T09:13:27;6;6;
77777;PMS5003;66966;-34.746;138.604;2023-07-28T09:15:52;7;7;
77777;PMS5003;66966;-34.746;138.604;2023-07-28T09:18:17;5;5;
77777;PMS5003;66966;-34.746;138.604;2023-07-28T09:20:43;6;6;
77777;PMS5003;66966;-34.746;138.604;2023-07-28T09:23:09;9;8;
77777;PMS5003;66966;-34.746;138.604;2023-07-28T09:25:34;9;8;
77777;PMS5003;66966;-34.746;138.604;2023-07-28T09:28:00;5;5;
77777;PMS5003;66966;-34.746;138.604;2023-07-28T09:30:26;8;7;
77777;PMS5003;66966;-34.746;138.604;2023-07-28T09:32:52;4;4;
77777;PMS5003;66966;-34.746;138.604;2023-07-28T09:35:17;3;3;
77777;PMS5003;66966;-34.746;138.604;2023-07-28T09:37:43;3;3;
77777;PMS5003;66966;-34.746;138.604;2023-07-28T09:40:09;3;3;
77777;PMS5003;66966;-34.746;138.604;2023-07-28T09:42:33;4;4;
77777;PMS5003;66966;-34.746;138.604;2023-07-28T09:44:59;5;4;
77777;PMS5003;66966;-34.746;138.604;2023-07-28T09:47:25;4;3;
77777;PMS5003;66966;-34.746;138.604;2023-07-28T09:49:50;6;5;
77777;PMS5003;66966;-34.746;138.604;2023-07-28T09:52:16;9;6;
77777;PMS5003;66966;-34.746;138.604;2023-07-28T09:54:41;15;12;
77777;PMS5003;66966;-34.746;138.604;2023-07-28T09:57:08;10;10;
77777;PMS5003;66966;-34.746;138.604;2023-07-28T09:59:35;10;10;
77777;PMS5003;66966;-34.746;138.604;2023-07-28T10:01:58;12;11;
77777;PMS5003;66966;-34.746;138.604;2023-07-28T10:04:23;12;11;
77777;PMS5003;66966;-34.746;138.604;2023-07-28T10:06:49;16;14;
77777;PMS5003;66966;-34.746;138.604;2023-07-28T10:09:15;23;20;
77777;PMS5003;66966;-34.746;138.604;2023-07-28T10:11:42;15;15;
77777;PMS5003;66966;-34.746;138.604;2023-07-28T10:14:06;20;18;
77777;PMS5003;66966;-34.746;138.604;2023-07-28T10:16:31;19;19;
77777;PMS5003;66966;-34.746;138.604;2023-07-28T10:18:58;28;25;
77777;PMS5003;66966;-34.746;138.604;2023-07-28T10:21:27;21;21;
77777;PMS5003;66966;-34.746;138.604;2023-07-28T10:26:13;20;18;
77777;PMS5003;66966;-34.746;138.604;2023-07-28T10:28:39;21;19;
77777;PMS5003;66966;-34.746;138.604;2023-07-28T10:31:05;25;22;
77777;PMS5003;66966;-34.746;138.604;2023-07-28T10:33:31;18;18;
77777;PMS5003;66966;-34.746;138.604;2023-07-28T10:35:57;38;35;
77777;PMS5003;66966;-34.746;138.604;2023-07-28T10:38:30;46;38;
77777;PMS5003;66966;-34.746;138.604;2023-07-28T10:40:46;44;40;
77777;PMS5003;66966;-34.746;138.604;2023-07-28T10:43:12;40;38;
77777;PMS5003;66966;-34.746;138.604;2023-07-28T10:45:37;33;31;
77777;PMS5003;66966;-34.746;138.604;2023-07-28T10:48:04;30;29;
77777;PMS5003;66966;-34.746;138.604;2023-07-28T10:50:28;28;26;
77777;PMS5003;66966;-34.746;138.604;2023-07-28T10:52:54;21;20;
77777;PMS5003;66966;-34.746;138.604;2023-07-28T10:55:20;24;23;
77777;PMS5003;66966;-34.746;138.604;2023-07-28T10:57:46;23;23;
77777;PMS5003;66966;-34.746;138.604;2023-07-28T11:00:12;26;26;
77777;PMS5003;66966;-34.746;138.604;2023-07-28T11:02:37;20;19;
77777;PMS5003;66966;-34.746;138.604;2023-07-28T11:05:05;14;14;
77777;PMS5003;66966;-34.746;138.604;2023-07-28T11:07:26;20;17;
77777;PMS5003;66966;-34.746;138.604;2023-07-28T11:09:52;16;15;
77777;PMS5003;66966;-34.746;138.604;2023-07-28T11:12:18;17;15;
77777;PMS5003;66966;-34.746;138.604;2023-07-28T11:14:43;12;10;
77777;PMS5003;66966;-34.746;138.604;2023-07-28T11:17:08;11;10;
77777;PMS5003;66966;-34.746;138.604;2023-07-28T11:19:34;15;15;
77777;PMS5003;66966;-34.746;138.604;2023-07-28T11:22:00;12;12;
77777;PMS5003;66966;-34.746;138.604;2023-07-28T11:24:26;17;14;
77777;PMS5003;66966;-34.746;138.604;2023-07-28T11:26:51;15;15;
77777;PMS5003;66966;-34.746;138.604;2023-07-28T11:29:18;14;14;
77777;PMS5003;66966;-34.746;138.604;2023-07-28T11:31:42;14;13;
77777;PMS5003;66966;-34.746;138.604;2023-07-28T11:36:34;5;5;
77777;PMS5003;66966;-34.746;138.604;2023-07-28T11:38:59;8;6;
77777;PMS5003;66966;-34.746;138.604;2023-07-28T11:41:25;5;4;
77777;PMS5003;66966;-34.746;138.604;2023-07-28T11:43:50;4;4;
77777;PMS5003;66966;-34.746;138.604;2023-07-28T11:48:42;3;3;
77777;PMS5003;66966;-34.746;138.604;2023-07-28T11:51:07;4;4;
77777;PMS5003;66966;-34.746;138.604;2023-07-28T11:53:33;5;4;
77777;PMS5003;66966;-34.746;138.604;2023-07-28T11:55:58;5;4;
77777;PMS5003;66966;-34.746;138.604;2023-07-28T11:58:24;7;5;
77777;PMS5003;66966;-34.746;138.604;2023-07-28T12:00:50;3;3;
77777;PMS5003;66966;-34.746;138.604;2023-07-28T12:03:15;5;5;
77777;PMS5003;66966;-34.746;138.604;2023-07-28T12:05:41;5;5;
77777;PMS5003;66966;-34.746;138.604;2023-07-28T12:08:06;5;5;
77777;PMS5003;66966;-34.746;138.604;2023-07-28T12:10:32;5;5;
77777;PMS5003;66966;-34.746;138.604;2023-07-28T12:13:02;3;3;
77777;PMS5003;66966;-34.746;138.604;2023-07-28T12:15:24;4;4;
77777;PMS5003;66966;-34.746;138.604;2023-07-28T12:20:15;10;8;
77777;PMS5003;66966;-34.746;138.604;2023-07-28T12:22:40;12;11;
77777;PMS5003;66966;-34.746;138.604;2023-07-28T12:25:06;19;17;
77777;PMS5003;66966;-34.746;138.604;2023-07-28T12:27:31;17;15;
77777;PMS5003;66966;-34.746;138.604;2023-07-28T12:29:57;14;12;
77777;PMS5003;66966;-34.746;138.604;2023-07-28T12:32:22;13;10;
77777;PMS5003;66966;-34.746;138.604;2023-07-28T12:34:48;11;11;
77777;PMS5003;66966;-34.746;138.604;2023-07-28T12:37:14;8;8;
77777;PMS5003;66966;-34.746;138.604;2023-07-28T12:39:39;11;11;
77777;PMS5003;66966;-34.746;138.604;2023-07-28T12:42:05;10;10;
77777;PMS5003;66966;-34.746;138.604;2023-07-28T12:44:30;10;10;
77777;PMS5003;66966;-34.746;138.604;2023-07-28T12:46:56;12;11;
77777;PMS5003;66966;-34.746;138.604;2023-07-28T12:49:22;10;9;
77777;PMS5003;66966;-34.746;138.604;2023-07-28T12:51:47;7;7;
77777;PMS5003;66966;-34.746;138.604;2023-07-28T12:54:13;9;9;
77777;PMS5003;66966;-34.746;138.604;2023-07-28T12:56:38;11;10;
77777;PMS5003;66966;-34.746;138.604;2023-07-28T12:59:03;12;12;
77777;PMS5003;66966;-34.746;138.604;2023-07-28T13:01:29;11;11;
77777;PMS5003;66966;-34.746;138.604;2023-07-28T13:03:54;15;13;
77777;PMS5003;66966;-34.746;138.604;2023-07-28T13:06:20;11;10;
77777;PMS5003;66966;-34.746;138.604;2023-07-28T13:08:46;11;10;
77777;PMS5003;66966;-34.746;138.604;2023-07-28T13:11:11;13;12;
77777;PMS5003;66966;-34.746;138.604;2023-07-28T13:13:37;10;9;
77777;PMS5003;66966;-34.746;138.604;2023-07-28T13:16:02;11;10;
77777;PMS5003;66966;-34.746;138.604;2023-07-28T13:18:27;12;10;
77777;PMS5003;66966;-34.746;138.604;2023-07-28T13:20:53;10;8;
77777;PMS5003;66966;-34.746;138.604;2023-07-28T13:23:18;9;9;
77777;PMS5003;66966;-34.746;138.604;2023-07-28T13:25:45;11;11;
77777;PMS5003;66966;-34.746;138.604;2023-07-28T13:28:10;10;9;
77777;PMS5003;66966;-34.746;138.604;2023-07-28T13:30:36;8;8;
77777;PMS5003;66966;-34.746;138.604;2023-07-28T13:33:01;10;10;
77777;PMS5003;66966;-34.746;138.604;2023-07-28T13:35:27;8;8;
77777;PMS5003;66966;-34.746;138.604;2023-07-28T13:37:53;10;10;
77777;PMS5003;66966;-34.746;138.604;2023-07-28T13:40:18;7;6;
77777;PMS5003;66966;-34.746;138.604;2023-07-28T13:42:43;6;6;
77777;PMS5003;66966;-34.746;138.604;2023-07-28T13:45:09;8;8;
77777;PMS5003;66966;-34.746;138.604;2023-07-28T13:47:34;6;6;
77777;PMS5003;66966;-34.746;138.604;2023-07-28T13:50:00;7;7;
77777;PMS5003;66966;-34.746;138.604;2023-07-28T13:52:26;6;6;
77777;PMS5003;66966;-34.746;138.604;2023-07-28T13:54:51;12;9;
77777;PMS5003;66966;-34.746;138.604;2023-07-28T13:57:17;12;9;
77777;PMS5003;66966;-34.746;138.604;2023-07-28T13:59:43;9;9;
77777;PMS5003;66966;-34.746;138.604;2023-07-28T14:02:09;11;11;
77777;PMS5003;66966;-34.746;138.604;2023-07-28T14:04:34;11;11;
77777;PMS5003;66966;-34.746;138.604;2023-07-28T14:07:00;10;10;
77777;PMS5003;66966;-34.746;138.604;2023-07-28T14:09:25;9;9;
77777;PMS5003;66966;-34.746;138.604;2023-07-28T14:11:51;10;10;
77777;PMS5003;66966;-34.746;138.604;2023-07-28T14:14:17;9;9;
77777;PMS5003;66966;-34.746;138.604;2023-07-28T14:16:42;12;12;
77777;PMS5003;66966;-34.746;138.604;2023-07-28T14:19:08;12;11;
77777;PMS5003;66966;-34.746;138.604;2023-07-28T14:21:33;14;13;
77777;PMS5003;66966;-34.746;138.604;2023-07-28T14:23:59;12;12;
77777;PMS5003;66966;-34.746;138.604;2023-07-28T14:26:25;10;10;
77777;PMS5003;66966;-34.746;138.604;2023-07-28T14:28:51;12;12;
77777;PMS5003;66966;-34.746;138.604;2023-07-28T14:31:16;10;9;
77777;PMS5003;66966;-34.746;138.604;2023-07-28T14:33:42;11;11;
77777;PMS5003;66966;-34.746;138.604;2023-07-28T14:36:08;12;10;
77777;PMS5003;66966;-34.746;138.604;2023-07-28T14:38:34;12;9;
77777;PMS5003;66966;-34.746;138.604;2023-07-28T14:40:59;8;8;
77777;PMS5003;66966;-34.746;138.604;2023-07-28T14:43:25;11;11;
77777;PMS5003;66966;-34.746;138.604;2023-07-28T14:45:50;10;10;
77777;PMS5003;66966;-34.746;138.604;2023-07-28T14:48:15;11;10;
77777;PMS5003;66966;-34.746;138.604;2023-07-28T14:50:41;13;10;
77777;PMS5003;66966;-34.746;138.604;2023-07-28T14:55:32;10;9;
77777;PMS5003;66966;-34.746;138.604;2023-07-28T14:57:59;7;7;
77777;PMS5003;66966;-34.746;138.604;2023-07-28T15:00:24;8;8;
77777;PMS5003;66966;-34.746;138.604;2023-07-28T15:02:50;9;7;
77777;PMS5003;66966;-34.746;138.604;2023-07-28T15:05:15;7;7;
77777;PMS5003;66966;-34.746;138.604;2023-07-28T15:07:41;7;7;
77777;PMS5003;66966;-34.746;138.604;2023-07-28T15:10:07;7;7;
77777;PMS5003;66966;-34.746;138.604;2023-07-28T15:12:32;6;6;
77777;PMS5003;66966;-34.746;138.604;2023-07-28T15:14:58;8;7;
77777;PMS5003;66966;-34.746;138.604;2023-07-28T15:17:23;8;7;
77777;PMS5003;66966;-34.746;138.604;2023-07-28T15:19:49;7;6;
77777;PMS5003;66966;-34.746;138.604;2023-07-28T15:22:14;8;7;
77777;PMS5003;66966;-34.746;138.604;2023-07-28T15:24:40;7;5;
77777;PMS5003;66966;-34.746;138.604;2023-07-28T15:27:07;8;8;
77777;PMS5003;66966;-34.746;138.604;2023-07-28T15:29:32;7;6;
77777;PMS5003;66966;-34.746;138.604;2023-07-28T15:31:57;5;5;
77777;PMS5003;66966;-34.746;138.604;2023-07-28T15:34:23;6;6;
77777;PMS5003;66966;-34.746;138.604;2023-07-28T15:36:49;6;6;
77777;PMS5003;66966;-34.746;138.604;2023-07-28T15:39:15;6;6;
77777;PMS5003;66966;-34.746;138.604;2023-07-28T15:41:40;7;7;
77777;PMS5003;66966;-34.746;138.604;2023-07-28T15:44:06;5;5;
77777;PMS5003;66966;-34.746;138.604;2023-07-28T15:46:32;6;6;
77777;PMS5003;66966;-34.746;138.604;2023-07-28T15:48:57;6;5;
77777;PMS5003;66966;-34.746;138.604;2023-07-28T15:51:23;6;5;
77777;PMS5003;66966;-34.746;138.604;2023-07-28T15:53:48;5;5;
77777;PMS5003;66966;-34.746;138.604;2023-07-28T15:56:14;6;6;
77777;PMS5003;66966;-34.746;138.604;2023-07-28T15:58:40;5;5;
77777;PMS5003;66966;-34.746;138.604;2023-07-28T16:01:06;7;7;
77777;PMS5003;66966;-34.746;138.604;2023-07-28T16:03:32;6;6;
77777;PMS5003;66966;-34.746;138.604;2023-07-28T16:05:57;6;5;
77777;PMS5003;66966;-34.746;138.604;2023-07-28T16:08:23;6;6;
77777;PMS5003;66966;-34.746;138.604;2023-07-28T16:10:49;4;4;
77777;PMS5003;66966;-34.746;138.604;2023-07-28T16:13:14;4;4;
77777;PMS5003;66966;-34.746;138.604;2023-07-28T16:15:40;3;3;
77777;PMS5003;66966;-34.746;138.604;2023-07-28T16:18:06;4;3;
77777;PMS5003;66966;-34.746;138.604;2023-07-28T16:20:32;3;3;
77777;PMS5003;66966;-34.746;138.604;2023-07-28T16:22:57;4;4;
77777;PMS5003;66966;-34.746;138.604;2023-07-28T16:25:23;4;3;
77777;PMS5003;66966;-34.746;138.604;2023-07-28T16:27:49;3;2;
77777;PMS5003;66966;-34.746;138.604;2023-07-28T16:30:15;4;4;
77777;PMS5003;66966;-34.746;138.604;2023-07-28T16:32:41;3;3;
77777;PMS5003;66966;-34.746;138.604;2023-07-28T16:35:06;4;4;
77777;PMS5003;66966;-34.746;138.604;2023-07-28T16:37:32;2;2;